Time,TemperatureF,DewpointF,PressureIn,WindDirection,WindDirectionDegrees,WindSpeedMPH,WindSpeedGustMPH,Humidity,HourlyPrecipIn,Conditions,Clouds,dailyrainin,SoftwareType,DateUTC
2013-01-18 00:09:00,2.5,-2.0,30.48,SSE,155,1.0,-999.0,83,-99.99,,,0.00,weatherlink.com 1.10,2013-01-18 07:09:00,
2013-01-18 00:24:00,1.1,-4.0,30.47,SSE,155,0.0,-999.0,79,-99.99,,,0.00,weatherlink.com 1.10,2013-01-18 07:24:00,
2013-01-18 00:39:00,-0.3,-5.0,30.45,SSE,155,0.0,-999.0,82,-99.99,,,0.00,weatherlink.com 1.10,2013-01-18 07:39:00,
2013-01-18 00:54:00,-2.1,-7.0,30.47,SSE,155,0.0,-999.0,80,-99.99,,,0.00,weatherlink.com 1.10,2013-01-18 07:54:00,
2013-01-18 01:09:00,-2.4,-6.0,30.46,SSE,155,0.0,-999.0,83,-99.99,,,0.00,weatherlink.com 1.10,2013-01-18 08:09:00,
2013-01-18 01:24:00,0.7,-3.0,30.45,SSE,155,0.0,-999.0,85,-99.99,,,0.00,weatherlink.com 1.10,2013-01-18 08:24:00,
2013-01-18 01:39:00,1.4,-3.0,30.47,SSE,155,0.0,-999.0,81,-99.99,,,0.00,weatherlink.com 1.10,2013-01-18 08:39:00,
2013-01-18 01:54:00,-1.8,-7.0,30.47,SSE,155,0.0,-999.0,79,-99.99,,,0.00,weatherlink.com 1.10,2013-01-18 08:54:00,
2013-01-18 02:09:00,-3.6,-9.0,30.48,SSE,155,0.0,-999.0,79,-99.99,,,0.00,weatherlink.com 1.10,2013-01-18 09:09:00,
2013-01-18 02:24:00,-5.7,-11.0,30.48,SSE,155,0.0,-999.0,79,-99.99,,,0.00,weatherlink.com 1.10,2013-01-18 09:24:00,
2013-01-18 02:39:00,-4.4,-8.0,30.47,SSE,149,1.0,-999.0,83,-99.99,,,0.00,weatherlink.com 1.10,2013-01-18 09:39:00,
2013-01-18 02:54:00,0.5,-3.0,30.46,SSE,148,2.0,-999.0,86,-99.99,,,0.00,weatherlink.com 1.10,2013-01-18 09:54:00,
2013-01-18 03:09:00,2.0,-2.0,30.46,SSE,148,0.0,-999.0,84,-99.99,,,0.00,weatherlink.com 1.10,2013-01-18 10:09:00,
2013-01-18 03:24:00,-1.7,-7.0,30.46,West,279,0.0,-999.0,77,-99.99,,,0.00,weatherlink.com 1.10,2013-01-18 10:24:00,
2013-01-18 03:39:00,-6.5,-12.0,30.45,WNW,300,0.0,-999.0,78,-99.99,,,0.00,weatherlink.com 1.10,2013-01-18 10:39:00,
2013-01-18 03:54:00,-5.3,-9.0,30.42,SE,145,1.0,-999.0,83,-99.99,,,0.00,weatherlink.com 1.10,2013-01-18 10:54:00,
2013-01-18 04:09:00,-3.4,-8.0,30.40,ESE,114,1.0,-999.0,82,-99.99,,,0.00,weatherlink.com 1.10,2013-01-18 11:09:00,
2013-01-18 04:24:00,3.7,1.0,30.38,ESE,113,2.0,-999.0,87,-99.99,,,0.00,weatherlink.com 1.10,2013-01-18 11:24:00,
2013-01-18 04:39:00,10.4,7.0,30.38,SE,132,2.0,-999.0,87,-99.99,,,0.00,weatherlink.com 1.10,2013-01-18 11:39:00,
2013-01-18 04:54:00,4.3,-2.0,30.38,North,360,1.0,-999.0,75,-99.99,,,0.00,weatherlink.com 1.10,2013-01-18 11:54:00,
2013-01-18 05:09:00,-1.6,-6.0,30.39,North,360,2.0,-999.0,80,-99.99,,,0.00,weatherlink.com 1.10,2013-01-18 12:09:00,
2013-01-18 05:24:00,-1.7,-6.0,30.41,NNE,17,1.0,-999.0,82,-99.99,,,0.00,weatherlink.com 1.10,2013-01-18 12:24:00,
2013-01-18 05:39:00,0.3,-4.0,30.41,NNE,17,0.0,-999.0,83,-99.99,,,0.00,weatherlink.com 1.10,2013-01-18 12:39:00,
2013-01-18 05:54:00,2.8,-1.0,30.41,NNE,24,0.0,-999.0,84,-99.99,,,0.00,weatherlink.com 1.10,2013-01-18 12:54:00,
2013-01-18 06:09:00,1.6,-3.0,30.41,NNE,24,0.0,-999.0,81,-99.99,,,0.00,weatherlink.com 1.10,2013-01-18 13:09:00,
2013-01-18 06:24:00,-1.1,-6.0,30.41,NNE,24,0.0,-999.0,79,-99.99,,,0.00,weatherlink.com 1.10,2013-01-18 13:24:00,
2013-01-18 06:39:00,-1.2,-5.0,30.42,NNE,25,0.0,-999.0,82,-99.99,,,0.00,weatherlink.com 1.10,2013-01-18 13:39:00,
2013-01-18 06:54:00,-0.1,-4.0,30.40,East,82,1.0,-999.0,82,-99.99,,,0.00,weatherlink.com 1.10,2013-01-18 13:54:00,
2013-01-18 07:09:00,0.7,-1.0,30.40,East,94,0.0,-999.0,92,-99.99,,,0.00,weatherlink.com 1.10,2013-01-18 14:09:00,
2013-01-18 07:24:00,2.4,-1.0,30.40,East,94,1.0,-999.0,84,-99.99,,,0.00,weatherlink.com 1.10,2013-01-18 14:24:00,
2013-01-18 07:39:00,4.1,0.0,30.39,East,94,0.0,-999.0,84,-99.99,,,0.00,weatherlink.com 1.10,2013-01-18 14:39:00,
2013-01-18 07:54:00,3.1,-1.0,30.39,East,94,0.0,-999.0,83,-99.99,,,0.00,weatherlink.com 1.10,2013-01-18 14:54:00,
2013-01-18 08:09:00,5.1,2.0,30.39,East,94,1.0,-999.0,85,-99.99,,,0.00,weatherlink.com 1.10,2013-01-18 15:09:00,
2013-01-18 08:24:00,3.2,-2.0,30.40,East,94,0.0,-999.0,80,-99.99,,,0.00,weatherlink.com 1.10,2013-01-18 15:24:00,
2013-01-18 08:39:00,3.0,-1.0,30.40,East,94,0.0,-999.0,83,-99.99,,,0.00,weatherlink.com 1.10,2013-01-18 15:39:00,
2013-01-18 08:54:00,6.7,3.0,30.40,East,94,0.0,-999.0,85,-99.99,,,0.00,weatherlink.com 1.10,2013-01-18 15:54:00,
2013-01-18 09:09:00,4.2,0.0,30.40,East,94,0.0,-999.0,81,-99.99,,,0.00,weatherlink.com 1.10,2013-01-18 16:09:00,
2013-01-18 09:24:00,4.5,0.0,30.41,East,94,0.0,-999.0,81,-99.99,,,0.00,weatherlink.com 1.10,2013-01-18 16:24:00,
2013-01-18 09:39:00,6.0,2.0,30.42,East,94,0.0,-999.0,83,-99.99,,,0.00,weatherlink.com 1.10,2013-01-18 16:39:00,
2013-01-18 09:54:00,8.2,5.0,30.41,East,94,0.0,-999.0,85,-99.99,,,0.00,weatherlink.com 1.10,2013-01-18 16:54:00,
2013-01-18 10:09:00,5.9,1.0,30.41,East,94,0.0,-999.0,80,-99.99,,,0.00,weatherlink.com 1.10,2013-01-18 17:09:00,
2013-01-18 10:24:00,7.4,3.0,30.40,East,94,0.0,-999.0,83,-99.99,,,0.00,weatherlink.com 1.10,2013-01-18 17:24:00,
2013-01-18 10:39:00,10.1,6.0,30.39,East,94,2.0,-999.0,84,-99.99,,,0.00,weatherlink.com 1.10,2013-01-18 17:39:00,
2013-01-18 10:54:00,11.6,8.0,30.39,East,94,0.0,-999.0,85,-99.99,,,0.00,weatherlink.com 1.10,2013-01-18 17:54:00,
2013-01-18 11:09:00,9.9,5.0,30.38,East,94,0.0,-999.0,80,-99.99,,,0.00,weatherlink.com 1.10,2013-01-18 18:09:00,
2013-01-18 11:24:00,9.6,5.0,30.37,East,94,0.0,-999.0,83,-99.99,,,0.00,weatherlink.com 1.10,2013-01-18 18:24:00,
2013-01-18 11:39:00,9.6,5.0,30.36,East,92,0.0,-999.0,82,-99.99,,,0.00,weatherlink.com 1.10,2013-01-18 18:39:00,
2013-01-18 11:54:00,9.0,5.0,30.36,North,349,4.0,-999.0,83,-99.99,,,0.00,weatherlink.com 1.10,2013-01-18 18:54:00,
2013-01-18 12:09:00,10.0,6.0,30.36,North,349,1.0,-999.0,83,-99.99,,,0.00,weatherlink.com 1.10,2013-01-18 19:09:00,
2013-01-18 12:24:00,11.0,7.0,30.36,North,349,1.0,-999.0,84,-99.99,,,0.00,weatherlink.com 1.10,2013-01-18 19:24:00,
2013-01-18 12:39:00,12.0,8.0,30.36,North,350,3.0,-999.0,83,-99.99,,,0.00,weatherlink.com 1.10,2013-01-18 19:39:00,
2013-01-18 12:54:00,12.7,9.0,30.36,North,349,0.0,-999.0,84,-99.99,,,0.00,weatherlink.com 1.10,2013-01-18 19:54:00,
2013-01-18 13:09:00,16.0,12.0,30.35,North,350,0.0,-999.0,84,-99.99,,,0.00,weatherlink.com 1.10,2013-01-18 20:09:00,
2013-01-18 13:24:00,18.4,15.0,30.35,North,350,0.0,-999.0,85,-99.99,,,0.00,weatherlink.com 1.10,2013-01-18 20:24:00,
2013-01-18 13:39:00,20.2,15.0,30.35,North,350,0.0,-999.0,81,-99.99,,,0.00,weatherlink.com 1.10,2013-01-18 20:39:00,
2013-01-18 13:54:00,19.7,14.0,30.35,North,350,1.0,-999.0,78,-99.99,,,0.00,weatherlink.com 1.10,2013-01-18 20:54:00,
2013-01-18 14:09:00,17.7,12.0,30.35,NNW,338,1.0,-999.0,79,-99.99,,,0.00,weatherlink.com 1.10,2013-01-18 21:09:00,
2013-01-18 14:24:00,19.0,14.0,30.35,NNW,338,0.0,-999.0,79,-99.99,,,0.00,weatherlink.com 1.10,2013-01-18 21:24:00,
2013-01-18 14:39:00,19.4,14.0,30.34,NNW,338,0.0,-999.0,79,-99.99,,,0.00,weatherlink.com 1.10,2013-01-18 21:39:00,
2013-01-18 14:54:00,20.2,14.0,30.33,NNW,338,0.0,-999.0,78,-99.99,,,0.00,weatherlink.com 1.10,2013-01-18 21:54:00,
2013-01-18 15:09:00,20.6,14.0,30.34,NNW,338,0.0,-999.0,75,-99.99,,,0.01,weatherlink.com 1.10,2013-01-18 22:09:00,
2013-01-18 15:24:00,20.7,13.0,30.32,NNW,338,0.0,-999.0,73,-99.99,,,0.01,weatherlink.com 1.10,2013-01-18 22:24:00,
2013-01-18 15:39:00,21.3,14.0,30.32,NNW,338,0.0,-999.0,73,-99.99,,,0.01,weatherlink.com 1.10,2013-01-18 22:39:00,
2013-01-18 15:54:00,19.7,12.0,30.33,NNW,338,0.0,-999.0,73,-99.99,,,0.01,weatherlink.com 1.10,2013-01-18 22:54:00,
2013-01-18 16:09:00,18.2,11.0,30.33,NNW,338,0.0,-999.0,73,-99.99,,,0.01,weatherlink.com 1.10,2013-01-18 23:09:00,
2013-01-18 16:24:00,17.6,11.0,30.33,NNW,338,0.0,-999.0,76,-99.99,,,0.01,weatherlink.com 1.10,2013-01-18 23:24:00,
2013-01-18 16:39:00,17.1,10.0,30.33,NNW,338,0.0,-999.0,75,-99.99,,,0.01,weatherlink.com 1.10,2013-01-18 23:39:00,
2013-01-18 16:54:00,16.1,10.0,30.34,NNW,338,0.0,-999.0,76,-99.99,,,0.01,weatherlink.com 1.10,2013-01-18 23:54:00,
2013-01-18 17:09:00,14.3,8.0,30.34,NNW,338,0.0,-999.0,77,-99.99,,,0.01,weatherlink.com 1.10,2013-01-19 00:09:00,
2013-01-18 17:24:00,12.1,6.0,30.34,NNW,338,0.0,-999.0,77,-99.99,,,0.01,weatherlink.com 1.10,2013-01-19 00:24:00,
2013-01-18 17:39:00,10.8,6.0,30.34,NNW,338,1.0,-999.0,80,-99.99,,,0.01,weatherlink.com 1.10,2013-01-19 00:39:00,
2013-01-18 17:54:00,10.1,5.0,30.35,NNW,338,0.0,-999.0,81,-99.99,,,0.01,weatherlink.com 1.10,2013-01-19 00:54:00,
2013-01-18 18:09:00,8.5,4.0,30.34,NNW,338,0.0,-999.0,82,-99.99,,,0.01,weatherlink.com 1.10,2013-01-19 01:09:00,
2013-01-18 18:24:00,8.8,5.0,30.34,NNW,338,0.0,-999.0,84,-99.99,,,0.01,weatherlink.com 1.10,2013-01-19 01:24:00,
2013-01-18 18:39:00,9.9,6.0,30.33,NNW,338,0.0,-999.0,85,-99.99,,,0.01,weatherlink.com 1.10,2013-01-19 01:39:00,
2013-01-18 18:54:00,8.0,3.0,30.33,NNW,338,2.0,-999.0,81,-99.99,,,0.01,weatherlink.com 1.10,2013-01-19 01:54:00,
2013-01-18 19:09:00,6.9,3.0,30.32,NNW,338,0.0,-999.0,84,-99.99,,,0.01,weatherlink.com 1.10,2013-01-19 02:09:00,
2013-01-18 19:24:00,6.6,3.0,30.33,NNW,338,0.0,-999.0,83,-99.99,,,0.01,weatherlink.com 1.10,2013-01-19 02:24:00,
2013-01-18 19:39:00,5.4,1.0,30.33,NNW,338,0.0,-999.0,82,-99.99,,,0.01,weatherlink.com 1.10,2013-01-19 02:39:00,
2013-01-18 19:54:00,3.8,-1.0,30.36,NNW,343,4.0,-999.0,82,-99.99,,,0.01,weatherlink.com 1.10,2013-01-19 02:54:00,
2013-01-18 20:09:00,5.2,2.0,30.38,North,9,2.0,-999.0,86,-99.99,,,0.01,weatherlink.com 1.10,2013-01-19 03:09:00,
2013-01-18 20:24:00,7.8,5.0,30.37,NNE,18,2.0,-999.0,86,-99.99,,,0.01,weatherlink.com 1.10,2013-01-19 03:24:00,
2013-01-18 20:39:00,6.8,3.0,30.36,NNE,18,1.0,-999.0,84,-99.99,,,0.01,weatherlink.com 1.10,2013-01-19 03:39:00,
2013-01-18 20:54:00,2.3,-2.0,30.35,South,169,2.0,-999.0,82,-99.99,,,0.01,weatherlink.com 1.10,2013-01-19 03:54:00,
2013-01-18 21:09:00,3.6,0.0,30.32,South,178,4.0,-999.0,85,-99.99,,,0.01,weatherlink.com 1.10,2013-01-19 04:09:00,
2013-01-18 21:24:00,7.4,4.0,30.32,SE,143,1.0,-999.0,87,-99.99,,,0.01,weatherlink.com 1.10,2013-01-19 04:24:00,
2013-01-18 21:39:00,8.2,4.0,30.34,SE,140,1.0,-999.0,84,-99.99,,,0.01,weatherlink.com 1.10,2013-01-19 04:39:00,
2013-01-18 21:54:00,2.7,-2.0,30.36,North,360,5.0,-999.0,81,-99.99,,,0.01,weatherlink.com 1.10,2013-01-19 04:54:00,
2013-01-18 22:09:00,4.1,0.0,30.38,NE,44,4.0,-999.0,84,-99.99,,,0.01,weatherlink.com 1.10,2013-01-19 05:09:00,
2013-01-18 22:24:00,6.1,3.0,30.39,NE,44,0.0,-999.0,85,-99.99,,,0.01,weatherlink.com 1.10,2013-01-19 05:24:00,
2013-01-18 22:39:00,2.3,-2.0,30.39,South,186,4.0,-999.0,81,-99.99,,,0.01,weatherlink.com 1.10,2013-01-19 05:39:00,
2013-01-18 22:54:00,2.0,-2.0,30.39,South,175,1.0,-999.0,84,-99.99,,,0.01,weatherlink.com 1.10,2013-01-19 05:54:00,
2013-01-18 23:09:00,3.8,0.0,30.38,South,173,1.0,-999.0,85,-99.99,,,0.01,weatherlink.com 1.10,2013-01-19 06:09:00,
2013-01-18 23:24:00,4.5,1.0,30.38,South,173,0.0,-999.0,84,-99.99,,,0.01,weatherlink.com 1.10,2013-01-19 06:24:00,
2013-01-18 23:39:00,2.2,-3.0,30.38,South,173,0.0,-999.0,80,-99.99,,,0.01,weatherlink.com 1.10,2013-01-19 06:39:00,
2013-01-18 23:54:00,-0.2,-5.0,30.37,South,173,0.0,-999.0,80,-99.99,,,0.01,weatherlink.com 1.10,2013-01-19 06:54:00,